ADDS METAR Data INFO
IDs: Format: Raw Decoded Include TAF

Data at: 0716 UTC 24 Jun 2018

KHZY 240653Z AUTO 20003KT 8SM FEW050 BKN075 19/19 A2981 RMK AO2 SLP088 T01890189
KHZY 240553Z AUTO 20004KT 8SM FEW095 19/19 A2980 RMK AO2 SLP088 T01890189 10211 20189 51002
KHZY 240453Z AUTO 00000KT 10SM FEW031 BKN080 OVC090 19/19 A2980 RMK AO2 SLP086 T01940194 402390172
KHZY 240418Z AUTO 00000KT 10SM SCT020 SCT045 OVC090 19/19 A2980 RMK AO2 T01940194
KHZY 240353Z AUTO 18003KT 10SM SCT018 BKN029 OVC090 19/19 A2980 RMK AO2 SLP085 T01940194
KHZY 240253Z AUTO 00000KT 9SM SCT037 SCT055 BKN100 19/19 A2980 RMK AO2 SLP084 T01890189 51009
KHZY 240153Z AUTO 00000KT 10SM FEW024 BKN034 OVC100 19/19 A2979 RMK AO2 SLP081 T01940194
KHZY 240150Z AUTO 00000KT 10SM FEW022 BKN040 OVC095 19/19 A2979 RMK AO2
KHZY 240112Z AUTO 00000KT 10SM BKN026 OVC036 20/19 A2977 RMK AO2 T02000194
KHZY 240053Z AUTO 15003KT 10SM BKN038 20/20 A2977 RMK AO2 SLP076 T02000200
KHZY 240031Z AUTO 11003KT 10SM FEW013 BKN030 OVC049 21/20 A2976 RMK AO2 T02060200
KHZY 240011Z AUTO 14004KT 10SM SCT022 BKN029 OVC050 21/21 A2976 RMK AO2 T02060206
KHZY 232353Z AUTO 00000KT 10SM SCT022 BKN030 OVC039 21/21 A2976 RMK AO2 RAE2255 SLP072 P0000 60025 T02110211 10239 20183 53009
KHZY 232343Z AUTO 10004KT 10SM SCT023 BKN032 OVC085 21/21 A2976 RMK AO2 RAE2255 P0000 T02060206
KHZY 232334Z AUTO 12004KT 10SM SCT023 BKN029 BKN038 21/21 A2976 RMK AO2 RAE2255 P0000 T02060206
KHZY 232253Z AUTO 00000KT 9SM -RA FEW019 BKN035 OVC045 21/21 A2975 RMK AO2 RAE40B44 SLP068 P0018 T02110206
KHZY 232240Z AUTO 00000KT 10SM FEW026 BKN034 OVC046 21/21 A2975 RMK AO2 RAE40 P0018 T02060206
KHZY 232221Z AUTO 30003KT 3SM -RA BR FEW018 BKN026 OVC035 20/20 A2975 RMK AO2 P0018 T02000200
KHZY 232217Z AUTO 35003KT 1 1/4SM -RA BR SCT020 BKN024 OVC037 20/20 A2975 RMK AO2 P0018 T02000200
KHZY 232211Z AUTO 02004KT 3/4SM +RA BR BKN020 BKN024 OVC030 21/20 A2974 RMK AO2 P0017 T02060200
KHZY 232159Z AUTO 00000KT 1 3/4SM RA BR OVC018 21/21 A2974 RMK AO2 P0003 T02060206
KHZY 232153Z AUTO 00000KT 5SM -RA BR OVC018 21/20 A2974 RMK AO2 RAB11 SLP066 P0000 T02110200
KHZY 232114Z AUTO 02003KT 8SM -RA BKN016 BKN029 OVC048 22/20 A2974 RMK AO2 RAB11 P0000 T02170200
KHZY 232053Z AUTO 00000KT 10SM FEW037 SCT045 BKN095 23/20 A2973 RMK AO2 RAB20E32 SLP063 P0000 60007 T02280200 56005
KHZY 231953Z AUTO 23005KT 10SM SCT016 SCT022 23/21 A2973 RMK AO2 SLP062 T02330206
KHZY 231853Z AUTO 22003KT 10SM FEW033 FEW046 21/20 A2973 RMK AO2 LTG DSNT SE RAE35 TSE06 SLP063 P0007 T02110200
KHZY 231820Z AUTO 17003KT 3SM -RA BR FEW026 BKN070 OVC090 19/19 A2975 RMK AO2 LTG DSNT NE TSE06 P0007 T01890189
KHZY 231817Z AUTO 20004KT 2SM VCTS RA BR FEW026 BKN048 OVC095 19/19 A2975 RMK AO2 LTG DSNT NE TSE06 P0007 T01890189
KHZY 231806Z AUTO 26003KT 2 1/2SM VCTS RA BR FEW011 BKN026 OVC075 19/18 A2975 RMK AO2 LTG DSNT N AND NE AND S TSE06 P0004 T01890183
KHZY 231757Z AUTO 28006KT 1 1/4SM TSRA BR SCT013 BKN027 OVC070 18/18 A2975 RMK AO2 LTG DSNT ALQDS P0002 T01830178
KHZY 231753Z AUTO 29008G21KT 1/2SM +TSRA FG FEW007 BKN021 OVC060 18/18 A2975 RMK AO2 PK WND 27034/1740 LTG DSNT N AND S AND SW RAB25 TSB36 SLP069 P0080 60121 T01830178 10233 20178 53005
KHZY 231743Z AUTO 28017G34KT 1/4SM +TSRA FG FEW007 BKN017 OVC110 19/19 A2976 RMK AO2 PK WND 27034/1740 LTG DSNT S AND SW RAB25 TSB36 P0054 T01940189
KHZY 231736Z AUTO 25010G15KT 210V280 3/4SM +TSRA BR SCT015 BKN022 BKN046 21/20 A2975 RMK AO2 LTG DSNT S RAB25 TSB36 PRESRR P0012 T02110200
KHZY 231734Z AUTO 25007KT 1SM VCTS +RA BR SCT015 SCT026 BKN046 22/20 A2975 RMK AO2 LTG DSNT S RAB25 PRESRR P0007 T02170200
KHZY 231721Z AUTO 20008KT 10SM VCTS FEW055 FEW080 SCT100 23/21 A2973 RMK AO2 LTG DSNT ALQDS T02280206
KHZY 231653Z AUTO 19004KT 10SM FEW020 BKN050 OVC075 21/21 A2973 RMK AO2 LTG DSNT W AND NW RAB33E53 SLP062 P0002 T02110206
KHZY 231636Z AUTO 21006KT 7SM -RA BKN022 BKN030 BKN120 22/19 A2973 RMK AO2 LTG DSNT SE AND W RAB33 P0000 T02220194
KHZY 231620Z AUTO 21006KT 10SM SCT022 BKN045 BKN120 23/19 A2973 RMK AO2 LTG DSNT W T02280194
KHZY 231553Z AUTO 18008KT 10SM BKN016 BKN025 23/20 A2973 RMK AO2 SLP064 T02280200
KHZY 231551Z AUTO 19007KT 10SM BKN016 BKN025 BKN030 23/20 A2973 RMK AO2
KHZY 231520Z AUTO 19007KT 10SM BKN012 OVC018 22/20 A2974 RMK AO2 T02170200
KHZY 231510Z AUTO 19007KT 160V220 10SM FEW010 OVC016 22/21 A2975 RMK AO2 T02220206
KHZY 231453Z AUTO 18006KT 10SM BKN010 OVC016 21/20 A2974 RMK AO2 CIG 008V013 SLP067 60039 T02060200 58003
KHZY 231418Z AUTO 17006KT 10SM OVC011 19/19 A2975 RMK AO2 CIG 007V014 T01940194
KHZY 231353Z AUTO 15007KT 10SM OVC009 19/19 A2976 RMK AO2 RAE01 CIG 007V013 SLP071 P0000 T01940189
KHZY 231323Z AUTO 16006KT 10SM OVC013 18/18 A2976 RMK AO2 RAE01 P0000 T01830183
KHZY 231253Z AUTO 16009KT 4SM -RA BR BKN015 OVC030 18/18 A2976 RMK AO2 SLP072 P0039 T01780178
KHZY 231251Z AUTO 16010KT 3SM RA BR BKN015 BKN020 OVC030 18/18 A2976 RMK AO2 P0039
KHZY 231245Z AUTO 16009KT 1 1/4SM +RA BR BKN017 BKN030 OVC040 18/18 A2975 RMK AO2 LTG DSNT NW P0038 T01780178
KHZY 231216Z AUTO 14011G16KT 1 3/4SM +RA BR FEW008 BKN031 OVC075 18/18 A2975 RMK AO2 LTG DSNT NW P0013 T01780178
KHZY 231213Z AUTO 15009KT 3SM -RA BR FEW008 BKN037 OVC075 18/18 A2975 RMK AO2 LTG DSNT NW P0007 T01780178
KHZY 231205Z AUTO 16007KT 2 1/2SM RA BR FEW007 BKN046 OVC070 18/18 A2975 RMK AO2 P0004 T01780178
KHZY 231153Z AUTO 14006KT 5SM -RA BR FEW009 BKN040 OVC055 18/18 A2975 RMK AO2 RAB23 SLP070 P0001 60002 70007 T01780178 10189 20178 53001
KHZY 231053Z AUTO 15009KT 10SM BKN070 OVC090 18/17 A2975 RMK AO2 LTG DSNT S RAB24E41 SLP069 P0001 T01780172
KHZY 230953Z AUTO 15007KT 10SM FEW065 OVC110 18/17 A2974 RMK AO2 RAB09E50 SLP065 P0000 T01780172
KHZY 230853Z AUTO 16007KT 10SM BKN090 OVC110 18/17 A2975 RMK AO2 RAE23 SLP069 P0000 60000 T01780172 56009
KHZY 230753Z AUTO 15007KT 10SM -RA FEW090 BKN110 18/17 A2975 RMK AO2 RAB30 SLP069 P0000 T01830167
KHZY 230653Z AUTO 15008KT 10SM FEW085 BKN120 19/17 A2976 RMK AO2 SLP074 T01890167
KHZY 230607Z AUTO 15009KT 10SM FEW029 BKN065 BKN080 18/17 A2978 RMK AO2 T01830167
KHZY 230553Z AUTO 16009KT 10SM BKN028 OVC060 18/17 A2978 RMK AO2 SLP079 T01780167 10194 20172 56006
KHZY 230516Z AUTO 15010G16KT 10SM BKN026 18/17 A2978 RMK AO2 T01830167
KHZY 230453Z AUTO 14009G17KT 10SM CLR 19/17 A2978 RMK AO2 SLP080 T01890167 402110150
KHZY 230353Z AUTO 14008KT 10SM CLR 18/17 A2979 RMK AO2 SLP083 T01830167
KHZY 230253Z AUTO 15008G16KT 10SM CLR 19/17 A2980 RMK AO2 SLP086 T01890167 56003
KHZY 230153Z AUTO 15010KT 10SM CLR 19/17 A2980 RMK AO2 SLP086 T01890167
KHZY 230053Z AUTO 14010KT 10SM CLR 19/17 A2979 RMK AO2 SLP084 T01890172
KHZY 222353Z AUTO 14010KT 10SM FEW043 SCT110 19/17 A2981 RMK AO2 SLP088 60000 T01940172 10211 20178 55003
KHZY 222253Z AUTO 13011KT 10SM CLR 20/18 A2980 RMK AO2 RAE15 SLP085 P0000 T02000178
KHZY 222153Z AUTO 14011KT 8SM -RA FEW019 OVC038 21/18 A2981 RMK AO2 RAB53 SLP089 P0000 T02060183
KHZY 222053Z AUTO 13010G18KT 10SM FEW021 BKN038 OVC047 21/19 A2981 RMK AO2 SLP091 T02060189 56007
KHZY 222040Z AUTO 13011KT 10SM SCT023 OVC042 21/19 A2981 RMK AO2 T02060189
KHZY 221953Z AUTO 12009KT 10SM SCT018 BKN023 OVC035 20/18 A2982 RMK AO2 SLP092 T02000183
KHZY 221926Z AUTO 12007G16KT 10SM BKN016 BKN034 OVC100 19/18 A2982 RMK AO2 T01940183